Time;durP1;ratioP1;P1;durP2;ratioP2;P2;SDS_P1;SDS_P2;PMS_P1;PMS_P2;Temp;Humidity;BMP_temperature;BMP_pressure;BME280_temperature;BME280_humidity;BME280_pressure;Samples;Min_cycle;Max_cycle;Signal;HPM_P1;HPM_P2
2023/03/17 00:01:15;;;;;;;7.00;3.08;;;4.00;32.10;;;;;;5019300;28;20041;-62
2023/03/17 00:03:43;;;;;;;4.75;2.63;;;4.00;33.90;;;;;;5028268;28;20033;-61
2023/03/17 00:06:15;;;;;;;2.95;1.92;;;3.90;33.10;;;;;;5028883;28;20120;-62
2023/03/17 00:08:41;;;;;;;9.32;3.17;;;3.90;33.30;;;;;;5012107;28;20058;-61
2023/03/17 00:11:15;;;;;;;4.32;2.70;;;3.90;35.20;;;;;;5047953;28;20041;-61
2023/03/17 00:13:42;;;;;;;8.80;3.47;;;3.80;34.20;;;;;;5031523;28;20033;-62
2023/03/17 00:16:28;;;;;;;5.82;2.80;;;3.70;36.40;;;;;;5049385;28;20025;-63
2023/03/17 00:18:54;;;;;;;4.32;2.47;;;3.70;35.80;;;;;;5012287;28;20478;-63
2023/03/17 00:21:31;;;;;;;6.45;2.83;;;3.60;37.90;;;;;;5036152;28;20037;-62
2023/03/17 00:23:58;;;;;;;5.00;2.58;;;3.60;38.20;;;;;;5051235;28;20025;-62
2023/03/17 00:26:25;;;;;;;5.03;2.78;;;3.50;37.70;;;;;;5030201;28;20544;-63
2023/03/17 00:28:51;;;;;;;6.47;3.47;;;3.50;39.50;;;;;;5051006;28;20032;-62
2023/03/17 00:31:23;;;;;;;11.50;3.15;;;3.40;42.60;;;;;;5029962;28;20038;-63
2023/03/17 00:33:51;;;;;;;11.32;3.15;;;3.30;42.80;;;;;;5011929;28;20030;-63
2023/03/17 00:36:29;;;;;;;6.20;3.20;;;3.40;42.80;;;;;;5036970;28;20029;-63
2023/03/17 00:38:56;;;;;;;7.20;3.65;;;3.30;45.30;;;;;;5010531;28;20521;-62
2023/03/17 00:41:21;;;;;;;6.15;3.55;;;3.20;45.70;;;;;;5035407;28;20220;-63
2023/03/17 00:43:47;;;;;;;6.65;3.22;;;3.20;44.30;;;;;;5050028;28;20032;-63
2023/03/17 00:46:34;;;;;;;8.07;3.50;;;3.20;45.90;;;;;;5029780;28;20039;-63
2023/03/17 00:49:01;;;;;;;7.30;3.38;;;3.10;48.00;;;;;;5010940;28;20037;-62
2023/03/17 00:51:26;;;;;;;6.38;3.17;;;3.00;47.70;;;;;;5033584;28;20045;-63
2023/03/17 00:53:52;;;;;;;5.55;3.38;;;3.00;48.00;;;;;;5050410;28;20021;-62
2023/03/17 00:56:19;;;;;;;8.05;4.03;;;2.90;49.30;;;;;;5029449;28;20097;-63
2023/03/17 00:58:46;;;;;;;4.65;3.38;;;2.90;50.10;;;;;;5050358;28;20116;-63
2023/03/17 01:01:11;;;;;;;5.68;3.65;;;2.90;51.50;;;;;;5032411;28;20108;-63
2023/03/17 01:03:37;;;;;;;14.30;4.93;;;2.80;50.80;;;;;;5050517;28;20676;-63
2023/03/17 01:06:06;;;;;;;9.25;4.22;;;2.80;51.10;;;;;;5026274;28;20041;-63
2023/03/17 01:08:32;;;;;;;14.90;5.35;;;2.80;52.70;;;;;;5050609;28;20032;-63
2023/03/17 01:10:59;;;;;;;10.02;4.10;;;2.80;53.00;;;;;;5031455;28;20382;-62
2023/03/17 01:13:24;;;;;;;8.23;4.28;;;2.90;51.70;;;;;;5050517;28;20031;-63
2023/03/17 01:15:51;;;;;;;10.93;4.80;;;2.80;51.70;;;;;;5031054;28;20112;-63
2023/03/17 01:18:20;;;;;;;10.07;4.05;;;2.90;52.10;;;;;;5050324;28;20052;-63
2023/03/17 01:20:47;;;;;;;12.77;4.93;;;2.90;52.00;;;;;;5030019;28;20037;-63
2023/03/17 01:23:13;;;;;;;11.65;4.60;;;2.90;53.60;;;;;;5050475;28;20078;-63
2023/03/17 01:25:41;;;;;;;10.90;4.70;;;2.90;53.70;;;;;;5029107;28;20041;-62
2023/03/17 01:28:09;;;;;;;10.55;5.03;;;2.90;52.50;;;;;;5050537;28;20021;-62
2023/03/17 01:30:38;;;;;;;7.63;4.93;;;2.90;53.60;;;;;;5035830;28;20554;-63
2023/03/17 01:33:05;;;;;;;9.13;4.97;;;2.90;53.60;;;;;;5046184;28;20098;-63
2023/03/17 01:35:31;;;;;;;13.18;4.85;;;2.90;53.50;;;;;;5046432;28;20393;-63
2023/03/17 01:37:58;;;;;;;7.60;4.05;;;2.90;52.90;;;;;;5049918;28;20094;-63
2023/03/17 01:40:42;;;;;;;11.35;5.47;;;3.00;53.20;;;;;;5034566;28;20025;-63
2023/03/17 01:43:07;;;;;;;12.60;5.32;;;3.00;53.40;;;;;;5049996;28;20070;-63
2023/03/17 01:46:13;;;;;;;12.70;5.25;;;3.00;53.90;;;;;;5034811;28;20127;-63
2023/03/17 01:48:47;;;;;;;12.40;5.38;;;3.10;53.30;;;;;;5030157;28;20034;-63
2023/03/17 01:51:20;;;;;;;12.15;5.40;;;3.10;52.90;;;;;;5021087;28;20105;-62
2023/03/17 01:53:48;;;;;;;15.80;7.35;;;3.10;52.70;;;;;;5010201;28;20109;-63
2023/03/17 01:56:15;;;;;;;13.05;5.80;;;3.10;51.90;;;;;;5034092;28;20026;-63
2023/03/17 01:58:42;;;;;;;14.10;6.85;;;3.10;52.80;;;;;;5048884;28;20042;-63
2023/03/17 02:01:09;;;;;;;10.98;5.50;;;3.10;51.50;;;;;;5028229;28;20057;-63
2023/03/17 02:03:34;;;;;;;12.30;5.65;;;3.10;52.30;;;;;;5049183;28;20586;-63
2023/03/17 02:06:01;;;;;;;9.25;5.35;;;3.20;52.10;;;;;;5024871;28;20030;-62
2023/03/17 02:08:26;;;;;;;7.32;4.18;;;3.20;51.40;;;;;;5034905;28;20112;-63
2023/03/17 02:10:55;;;;;;;7.32;4.15;;;3.20;51.30;;;;;;5048560;28;20119;-66
2023/03/17 02:13:20;;;;;;;11.73;4.97;;;3.20;52.00;;;;;;5027657;28;20018;-63
2023/03/17 02:15:49;;;;;;;12.43;4.93;;;3.20;51.90;;;;;;5048669;28;20128;-63
2023/03/17 02:18:17;;;;;;;8.90;3.75;;;3.20;51.70;;;;;;5038198;28;20600;-63
2023/03/17 02:20:45;;;;;;;10.82;5.00;;;3.20;50.90;;;;;;5029383;28;20030;-63
2023/03/17 02:23:13;;;;;;;8.50;4.53;;;3.20;51.10;;;;;;5046792;28;20349;-63
2023/03/17 02:25:39;;;;;;;13.18;4.82;;;3.20;51.60;;;;;;5028715;28;20033;-63
2023/03/17 02:28:15;;;;;;;9.27;4.90;;;3.20;50.80;;;;;;5046448;28;20535;-63
2023/03/17 02:30:41;;;;;;;8.75;4.75;;;3.20;51.30;;;;;;5015043;28;20044;-63
2023/03/17 02:33:07;;;;;;;7.95;4.45;;;3.20;50.80;;;;;;5047096;28;20504;-63
2023/03/17 02:35:33;;;;;;;12.55;4.95;;;3.20;51.00;;;;;;5029640;28;20044;-63
2023/03/17 02:37:59;;;;;;;13.13;5.00;;;3.20;50.90;;;;;;5046047;28;20033;-63
2023/03/17 02:40:26;;;;;;;9.98;4.72;;;3.20;50.30;;;;;;5029557;28;20028;-63
2023/03/17 02:42:52;;;;;;;10.70;4.68;;;3.20;50.40;;;;;;5046506;28;20108;-64
2023/03/17 02:45:18;;;;;;;9.63;5.13;;;3.20;50.30;;;;;;5048603;28;20053;-63
2023/03/17 02:47:44;;;;;;;10.05;5.30;;;3.10;50.60;;;;;;5033744;28;20068;-63
2023/03/17 02:50:18;;;;;;;8.70;3.90;;;3.20;50.20;;;;;;5048983;28;20106;-63
2023/03/17 02:52:44;;;;;;;9.60;4.35;;;3.20;50.50;;;;;;5017125;28;20128;-63
2023/03/17 02:55:09;;;;;;;10.18;5.18;;;3.20;50.10;;;;;;5046381;28;20021;-63
2023/03/17 02:57:35;;;;;;;10.02;4.95;;;3.20;50.50;;;;;;5026694;28;20280;-63
2023/03/17 03:00:02;;;;;;;9.38;4.55;;;3.20;50.50;;;;;;5046686;28;20033;-63
2023/03/17 03:02:27;;;;;;;8.18;4.40;;;3.20;50.60;;;;;;5027295;28;20469;-63
2023/03/17 03:04:53;;;;;;;10.45;5.07;;;3.20;50.20;;;;;;5038049;28;20045;-62
2023/03/17 03:07:18;;;;;;;10.38;4.80;;;3.20;49.80;;;;;;5037872;28;20075;-63
2023/03/17 03:09:44;;;;;;;10.40;5.20;;;3.30;49.50;;;;;;5029291;28;20041;-63
2023/03/17 03:12:10;;;;;;;10.70;5.25;;;3.20;48.90;;;;;;5045618;28;20123;-63
2023/03/17 03:14:36;;;;;;;8.93;5.13;;;3.30;48.90;;;;;;5027764;28;20025;-63
2023/03/17 03:17:03;;;;;;;9.02;4.55;;;3.30;49.00;;;;;;5046078;28;20024;-63
2023/03/17 03:19:28;;;;;;;7.38;3.72;;;3.20;49.40;;;;;;5028880;28;20025;-63
2023/03/17 03:21:54;;;;;;;8.23;4.75;;;3.20;48.90;;;;;;5045742;28;20227;-63
2023/03/17 03:24:19;;;;;;;10.20;4.47;;;3.20;48.70;;;;;;5029102;28;20029;-63
2023/03/17 03:26:45;;;;;;;12.13;4.88;;;3.20;49.00;;;;;;5045775;28;20416;-63
2023/03/17 03:29:10;;;;;;;11.38;5.18;;;3.20;49.10;;;;;;5048521;28;20032;-63
2023/03/17 03:31:36;;;;;;;8.35;4.65;;;3.20;48.50;;;;;;5031641;28;20046;-63
2023/03/17 03:34:01;;;;;;;9.60;4.65;;;3.10;48.40;;;;;;5047393;28;20029;-63
2023/03/17 03:36:27;;;;;;;11.90;5.80;;;3.10;49.20;;;;;;5031363;28;20028;-63
2023/03/17 03:38:52;;;;;;;13.10;6.20;;;3.10;48.90;;;;;;5050855;28;20037;-63
2023/03/17 03:41:18;;;;;;;16.65;7.60;;;3.10;48.80;;;;;;5033788;28;20025;-63
2023/03/17 03:43:44;;;;;;;18.55;8.02;;;3.10;49.60;;;;;;5052312;28;20114;-63
2023/03/17 03:46:09;;;;;;;19.38;7.50;;;3.10;48.80;;;;;;5032752;28;20036;-63
2023/03/17 03:48:35;;;;;;;17.60;7.95;;;3.10;48.90;;;;;;5052204;28;20013;-63
2023/03/17 03:51:01;;;;;;;19.60;8.00;;;3.10;48.60;;;;;;5031172;28;20034;-63
2023/03/17 03:53:27;;;;;;;14.95;6.47;;;3.10;48.20;;;;;;5052270;28;20122;-63
2023/03/17 03:55:54;;;;;;;12.23;5.88;;;3.10;48.30;;;;;;5032422;28;20087;-63
2023/03/17 03:58:20;;;;;;;14.05;6.78;;;3.20;48.00;;;;;;5049690;28;20036;-63
2023/03/17 04:00:45;;;;;;;13.20;5.80;;;3.20;48.00;;;;;;5031185;28;20026;-63
2023/03/17 04:03:12;;;;;;;11.38;5.05;;;3.20;47.40;;;;;;5030733;28;20021;-63
2023/03/17 04:05:37;;;;;;;7.80;4.50;;;3.20;47.00;;;;;;5035166;28;20569;-63
2023/03/17 04:08:03;;;;;;;12.50;5.85;;;3.20;47.10;;;;;;5039148;28;20108;-63
2023/03/17 04:10:28;;;;;;;9.70;4.57;;;3.20;47.00;;;;;;5032261;28;20037;-63
2023/03/17 04:12:55;;;;;;;10.82;4.13;;;3.20;46.60;;;;;;5041134;28;20045;-63
2023/03/17 04:15:20;;;;;;;12.15;4.68;;;3.30;47.00;;;;;;5051081;28;20075;-63
2023/03/17 04:17:46;;;;;;;9.93;4.75;;;3.30;46.80;;;;;;5037373;28;20029;-63
2023/03/17 04:20:13;;;;;;;8.70;4.03;;;3.30;46.70;;;;;;5051717;28;20120;-63
2023/03/17 04:22:40;;;;;;;12.23;5.00;;;3.30;46.80;;;;;;5035842;28;20028;-64
2023/03/17 04:25:07;;;;;;;12.98;4.80;;;3.30;46.00;;;;;;5051721;28;20338;-63
2023/03/17 04:27:33;;;;;;;7.90;3.78;;;3.30;45.70;;;;;;5035421;28;20384;-63
2023/03/17 04:29:58;;;;;;;9.30;4.00;;;3.30;45.90;;;;;;5050097;28;20036;-63
2023/03/17 04:32:24;;;;;;;15.25;4.55;;;3.30;45.20;;;;;;5032858;28;20049;-64
2023/03/17 04:34:50;;;;;;;11.23;4.30;;;3.40;45.10;;;;;;5048151;28;20029;-63
2023/03/17 04:37:15;;;;;;;6.25;4.07;;;3.40;45.20;;;;;;5050267;28;20564;-63
2023/03/17 04:39:41;;;;;;;9.32;3.97;;;3.40;45.30;;;;;;5033854;28;20397;-64
2023/03/17 04:42:06;;;;;;;8.27;3.22;;;3.40;45.00;;;;;;5048982;28;20040;-64
2023/03/17 04:44:32;;;;;;;7.97;4.22;;;3.40;45.30;;;;;;5039471;28;20469;-66
2023/03/17 04:46:57;;;;;;;9.90;4.47;;;3.40;44.70;;;;;;5030273;28;20029;-66
2023/03/17 04:49:24;;;;;;;8.98;3.90;;;3.30;44.90;;;;;;5034085;28;20043;-65
2023/03/17 04:51:50;;;;;;;12.90;4.63;;;3.40;44.70;;;;;;5030292;28;20079;-66
2023/03/17 04:54:16;;;;;;;8.38;4.03;;;3.30;44.90;;;;;;5036171;28;20033;-65
2023/03/17 04:56:41;;;;;;;6.88;3.90;;;3.30;45.00;;;;;;5049082;28;20043;-65
2023/03/17 04:59:07;;;;;;;8.60;3.85;;;3.30;45.20;;;;;;5035618;28;20029;-64
2023/03/17 05:01:33;;;;;;;7.25;4.13;;;3.30;45.00;;;;;;5049980;28;20487;-64
2023/03/17 05:03:59;;;;;;;7.32;3.80;;;3.30;45.10;;;;;;5034153;28;20078;-64
2023/03/17 05:06:24;;;;;;;9.95;4.20;;;3.30;45.30;;;;;;5031463;28;20042;-65
2023/03/17 05:08:50;;;;;;;11.90;4.28;;;3.20;45.40;;;;;;5047078;28;20041;-65
2023/03/17 05:11:15;;;;;;;11.80;4.65;;;3.20;45.10;;;;;;5032771;28;20041;-64
2023/03/17 05:13:41;;;;;;;5.40;3.30;;;3.20;45.60;;;;;;5048849;28;20121;-65
2023/03/17 05:16:08;;;;;;;9.25;3.75;;;3.30;45.20;;;;;;5028136;28;20439;-56
2023/03/17 05:18:34;;;;;;;7.00;3.63;;;3.20;45.10;;;;;;5049207;28;20501;-56
2023/03/17 05:20:59;;;;;;;8.25;3.92;;;3.20;45.00;;;;;;5038483;28;20037;-57
2023/03/17 05:23:25;;;;;;;8.25;3.78;;;3.20;45.20;;;;;;5030067;28;20026;-58
2023/03/17 05:25:51;;;;;;;6.60;4.03;;;3.30;45.20;;;;;;5046611;28;20557;-57
2023/03/17 05:28:18;;;;;;;11.98;4.10;;;3.30;45.40;;;;;;5029492;28;20026;-55
2023/03/17 05:30:44;;;;;;;8.80;4.40;;;3.30;45.00;;;;;;5012318;28;992550;-59
2023/03/17 05:33:10;;;;;;;8.30;5.10;;;3.30;44.80;;;;;;5050571;28;20404;-59
2023/03/17 05:35:37;;;;;;;9.98;4.38;;;3.30;44.60;;;;;;5034900;28;20032;-57
2023/03/17 05:38:02;;;;;;;10.45;4.15;;;3.40;44.00;;;;;;5050180;28;20121;-58
2023/03/17 05:40:28;;;;;;;11.25;4.70;;;3.40;44.00;;;;;;5034905;28;20529;-60
2023/03/17 05:42:53;;;;;;;8.98;4.20;;;3.40;44.00;;;;;;5047967;28;20438;-58
2023/03/17 05:45:19;;;;;;;8.68;4.15;;;3.50;44.40;;;;;;5030064;28;20403;-58
2023/03/17 05:47:44;;;;;;;9.45;4.03;;;3.50;44.30;;;;;;5030048;28;20041;-58
2023/03/17 05:50:11;;;;;;;9.23;4.30;;;3.50;43.80;;;;;;5047338;28;20202;-59
2023/03/17 05:52:37;;;;;;;11.73;4.68;;;3.60;44.10;;;;;;5050126;28;20083;-58
2023/03/17 05:55:04;;;;;;;9.57;4.35;;;3.60;44.30;;;;;;5031390;28;22262;-59
2023/03/17 05:57:30;;;;;;;9.65;4.60;;;3.60;44.60;;;;;;5049915;28;20036;-59
2023/03/17 05:59:56;;;;;;;10.82;5.30;;;3.70;44.40;;;;;;5032839;28;20036;-59
2023/03/17 06:02:21;;;;;;;12.95;4.63;;;3.70;44.40;;;;;;5047440;28;20029;-64
2023/03/17 06:04:47;;;;;;;10.80;4.28;;;3.80;44.00;;;;;;5030327;28;20476;-54
2023/03/17 06:07:12;;;;;;;10.02;4.43;;;3.90;44.00;;;;;;5049356;28;20025;-59
2023/03/17 06:09:38;;;;;;;10.45;5.07;;;3.90;43.70;;;;;;5031738;28;20021;-59
2023/03/17 06:12:05;;;;;;;8.15;4.53;;;4.00;43.30;;;;;;5049568;28;20102;-59
2023/03/17 06:14:31;;;;;;;7.95;4.18;;;4.10;43.00;;;;;;5030726;28;20029;-59
2023/03/17 06:16:56;;;;;;;11.35;4.30;;;4.10;43.00;;;;;;5049059;28;20028;-58
2023/03/17 06:19:22;;;;;;;11.65;4.78;;;4.20;42.80;;;;;;5029687;28;20378;-59
2023/03/17 06:21:47;;;;;;;11.18;5.43;;;4.10;42.00;;;;;;5049392;28;20060;-59
2023/03/17 06:24:13;;;;;;;10.68;4.68;;;4.10;42.60;;;;;;5028323;28;20057;-58
2023/03/17 06:26:39;;;;;;;10.85;5.00;;;4.20;42.50;;;;;;5049062;28;20393;-59
2023/03/17 06:29:08;;;;;;;12.50;4.93;;;4.20;41.50;;;;;;5029719;28;20485;-59
2023/03/17 06:31:36;;;;;;;12.02;5.82;;;4.20;42.10;;;;;;5035713;28;20045;-60
2023/03/17 06:34:02;;;;;;;10.30;4.50;;;4.20;42.10;;;;;;5048529;28;20409;-59
2023/03/17 06:36:28;;;;;;;12.50;4.82;;;4.20;42.10;;;;;;5027814;28;20032;-59
2023/03/17 06:38:54;;;;;;;10.95;3.88;;;4.30;42.20;;;;;;5048075;28;20040;-59
2023/03/17 06:41:20;;;;;;;13.15;5.43;;;4.30;41.80;;;;;;5027505;28;20406;-59
2023/03/17 06:43:46;;;;;;;11.35;5.38;;;4.40;41.20;;;;;;5048154;28;20316;-59
2023/03/17 06:46:11;;;;;;;8.25;4.20;;;4.40;41.30;;;;;;5027777;28;20041;-59
2023/03/17 06:48:37;;;;;;;10.98;4.75;;;4.50;41.80;;;;;;5048065;28;20033;-59
2023/03/17 06:51:04;;;;;;;10.27;5.03;;;4.50;41.20;;;;;;5027399;28;20476;-59
2023/03/17 06:53:30;;;;;;;10.45;5.50;;;4.70;40.40;;;;;;5048216;28;20175;-59
2023/03/17 06:55:55;;;;;;;12.88;4.75;;;4.70;40.50;;;;;;5027103;28;20026;-59
2023/03/17 06:58:21;;;;;;;12.90;5.05;;;4.70;40.30;;;;;;5047730;28;20028;-59
2023/03/17 07:00:47;;;;;;;9.35;4.35;;;4.80;40.80;;;;;;5027547;28;20029;-59
2023/03/17 07:03:16;;;;;;;7.57;4.30;;;4.90;40.40;;;;;;5047712;28;20036;-59
2023/03/17 07:05:42;;;;;;;11.15;5.40;;;4.90;40.00;;;;;;5031911;28;20036;-60
2023/03/17 07:08:08;;;;;;;10.45;5.82;;;5.00;38.90;;;;;;5028975;28;20017;-59
2023/03/17 07:10:34;;;;;;;10.13;5.57;;;5.00;38.30;;;;;;5034230;28;20194;-59
2023/03/17 07:13:01;;;;;;;7.13;4.45;;;5.00;38.70;;;;;;5047505;28;20037;-59
2023/03/17 07:15:27;;;;;;;10.13;4.20;;;5.00;39.10;;;;;;5037519;28;20025;-59
2023/03/17 07:17:53;;;;;;;10.63;5.18;;;5.10;39.60;;;;;;5028791;28;20477;-59
2023/03/17 07:20:19;;;;;;;9.93;4.65;;;5.10;38.30;;;;;;5045374;28;20025;-59
2023/03/17 07:22:44;;;;;;;9.43;4.72;;;5.20;38.50;;;;;;5028860;28;20482;-59
2023/03/17 07:25:10;;;;;;;7.50;4.57;;;5.30;37.40;;;;;;5045516;28;20057;-59
2023/03/17 07:27:35;;;;;;;9.32;4.60;;;5.50;37.10;;;;;;5028729;28;20041;-58
2023/03/17 07:30:03;;;;;;;10.05;5.10;;;5.70;35.90;;;;;;5045499;28;20037;-59
2023/03/17 07:32:29;;;;;;;9.73;4.32;;;6.00;34.70;;;;;;5048049;28;20041;-59
2023/03/17 07:34:56;;;;;;;7.97;5.05;;;6.40;31.10;;;;;;5032802;28;20512;-59
2023/03/17 07:37:22;;;;;;;7.15;4.13;;;6.80;28.80;;;;;;5048255;28;20435;-59
2023/03/17 07:39:47;;;;;;;6.38;4.70;;;7.20;26.90;;;;;;5031917;28;20028;-60
2023/03/17 07:42:14;;;;;;;7.32;4.78;;;7.50;26.40;;;;;;5048348;28;20055;-59
2023/03/17 07:44:40;;;;;;;10.05;4.95;;;7.70;24.90;;;;;;5029417;28;20028;-59
2023/03/17 07:47:07;;;;;;;8.27;4.45;;;7.80;22.40;;;;;;5048340;28;20013;-59
2023/03/17 07:49:33;;;;;;;12.13;4.13;;;7.90;21.90;;;;;;5029916;28;20319;-59
2023/03/17 07:51:59;;;;;;;7.82;3.63;;;8.00;20.90;;;;;;5048236;28;20045;-59
2023/03/17 07:54:25;;;;;;;5.85;3.80;;;8.20;20.40;;;;;;5028806;28;20021;-59
2023/03/17 07:56:51;;;;;;;5.82;3.63;;;8.50;21.70;;;;;;5048248;28;20058;-60
2023/03/17 07:59:17;;;;;;;7.95;3.83;;;8.70;20.50;;;;;;5027304;28;20038;-59
2023/03/17 08:01:43;;;;;;;9.60;5.03;;;9.10;16.90;;;;;;5048313;28;20013;-59
2023/03/17 08:04:11;;;;;;;6.78;4.22;;;9.30;16.40;;;;;;5028147;28;20014;-59
2023/03/17 08:06:41;;;;;;;10.55;4.38;;;9.50;15.00;;;;;;5021629;28;20109;-59
2023/03/17 08:09:08;;;;;;;8.75;4.32;;;9.60;14.20;;;;;;5047868;28;20485;-60
2023/03/17 08:11:34;;;;;;;8.30;4.32;;;9.50;13.20;;;;;;5045750;28;20135;-59
2023/03/17 08:14:01;;;;;;;9.02;4.07;;;9.20;13.80;;;;;;5028194;28;20101;-59
2023/03/17 08:16:27;;;;;;;9.70;3.88;;;9.20;13.40;;;;;;5026706;28;20036;-59
2023/03/17 08:18:53;;;;;;;7.30;3.92;;;9.20;13.80;;;;;;5047095;28;20037;-59
2023/03/17 08:21:19;;;;;;;12.50;4.60;;;9.30;13.50;;;;;;5026862;28;20389;-59
2023/03/17 08:23:45;;;;;;;6.80;4.30;;;9.40;13.60;;;;;;5047254;28;20493;-59
2023/03/17 08:26:13;;;;;;;8.65;3.80;;;9.60;12.10;;;;;;5029937;28;20603;-59
2023/03/17 08:28:38;;;;;;;6.88;3.42;;;9.80;11.90;;;;;;5049354;28;20033;-59
2023/03/17 08:31:17;;;;;;;7.70;3.60;;;10.00;12.30;;;;;;5035977;28;20517;-59
2023/03/17 08:33:49;;;;;;;5.65;3.45;;;10.30;12.10;;;;;;5051508;28;20067;-59
2023/03/17 08:36:15;;;;;;;8.07;3.38;;;10.60;11.30;;;;;;5026521;28;20121;-59
2023/03/17 08:38:41;;;;;;;8.20;3.80;;;10.80;9.60;;;;;;5050496;28;20099;-59
2023/03/17 08:41:11;;;;;;;6.53;4.32;;;11.00;10.70;;;;;;5028397;28;20099;-59
2023/03/17 08:43:37;;;;;;;5.53;3.28;;;11.00;9.20;;;;;;5050551;28;20091;-59
2023/03/17 08:46:07;;;;;;;8.88;4.13;;;11.40;9.50;;;;;;5029764;28;20033;-59
2023/03/17 08:48:34;;;;;;;6.65;3.58;;;11.60;8.60;;;;;;5050943;28;20036;-59
2023/03/17 08:51:00;;;;;;;5.32;3.38;;;11.80;7.80;;;;;;5029291;28;20025;-59
2023/03/17 08:53:26;;;;;;;7.32;3.97;;;11.60;6.80;;;;;;5050282;28;20025;-59
2023/03/17 08:55:54;;;;;;;11.32;4.18;;;11.40;7.10;;;;;;5029471;28;20037;-59
2023/03/17 08:58:20;;;;;;;7.13;3.63;;;11.20;7.30;;;;;;5050552;28;20033;-59
2023/03/17 09:00:46;;;;;;;7.60;4.05;;;11.30;8.30;;;;;;5029718;28;20029;-59
2023/03/17 09:03:12;;;;;;;5.95;3.45;;;11.10;7.90;;;;;;5049961;28;20083;-59
2023/03/17 09:05:38;;;;;;;6.13;3.90;;;11.00;8.10;;;;;;5036445;28;20485;-60
2023/03/17 09:08:03;;;;;;;6.55;3.47;;;11.20;8.40;;;;;;5031104;28;20044;-59
2023/03/17 09:10:29;;;;;;;5.88;3.63;;;11.50;7.90;;;;;;5047827;28;20037;-59
2023/03/17 09:13:01;;;;;;;10.73;4.10;;;11.70;7.30;;;;;;5031351;28;20541;-58
2023/03/17 09:15:27;;;;;;;5.47;3.67;;;11.90;7.10;;;;;;5030129;28;20070;-59
2023/03/17 09:17:53;;;;;;;7.78;3.20;;;11.90;6.70;;;;;;5031065;28;20483;-59
2023/03/17 09:20:19;;;;;;;5.63;3.10;;;12.00;7.40;;;;;;5047508;28;20029;-58
2023/03/17 09:22:46;;;;;;;8.38;3.35;;;12.10;7.70;;;;;;5030931;28;20555;-59
2023/03/17 09:25:12;;;;;;;9.50;3.45;;;12.00;6.10;;;;;;5047789;28;20025;-59
2023/03/17 09:27:37;;;;;;;6.78;3.50;;;11.80;6.20;;;;;;5030729;28;20033;-59
2023/03/17 09:30:03;;;;;;;5.22;3.22;;;11.50;6.90;;;;;;5047514;28;20485;-59
2023/03/17 09:32:28;;;;;;;7.03;3.58;;;11.60;7.60;;;;;;5048729;28;20132;-59
2023/03/17 09:34:54;;;;;;;6.38;3.65;;;11.70;7.50;;;;;;5034550;28;20059;-59
2023/03/17 09:37:20;;;;;;;7.10;3.60;;;11.60;7.90;;;;;;5049087;28;20079;-58
2023/03/17 09:39:45;;;;;;;8.02;3.58;;;11.30;7.60;;;;;;5033811;28;20017;-59
2023/03/17 09:42:35;;;;;;;6.43;3.40;;;11.40;8.30;;;;;;5050066;28;20090;-59
2023/03/17 09:45:30;;;;;;;7.47;3.30;;;11.80;8.40;;;;;;5022433;28;20044;-58
2023/03/17 09:48:10;;;;;;;5.25;2.85;;;12.00;7.60;;;;;;5029801;28;20025;-59
2023/03/17 09:51:07;;;;;;;4.03;2.35;;;12.20;8.00;;;;;;5031797;28;20032;-59
2023/03/17 09:53:48;;;;;;;3.70;2.63;;;12.30;7.50;;;;;;5030084;28;20025;-59
2023/03/17 09:56:16;;;;;;;7.88;3.42;;;12.50;7.60;;;;;;5024011;28;20127;-58
2023/03/17 09:58:57;;;;;;;5.63;3.05;;;12.40;7.10;;;;;;5048215;28;20036;-59
2023/03/17 10:01:23;;;;;;;5.20;2.88;;;12.40;6.70;;;;;;5026468;28;20030;-59
2023/03/17 10:03:50;;;;;;;7.25;3.03;;;12.30;7.40;;;;;;5048947;28;20403;-59
2023/03/17 10:06:22;;;;;;;5.03;2.85;;;12.30;6.40;;;;;;5025118;28;20029;-58
2023/03/17 10:08:56;;;;;;;6.32;3.22;;;12.20;6.80;;;;;;5009931;28;20033;-58
2023/03/17 10:11:37;;;;;;;4.85;2.90;;;12.00;6.60;;;;;;5026059;28;20176;-59
2023/03/17 10:14:26;;;;;;;4.50;2.83;;;12.00;7.10;;;;;;5010153;28;20033;-58
2023/03/17 10:16:56;;;;;;;5.95;3.13;;;12.10;7.60;;;;;;5008559;28;20030;-58
2023/03/17 10:19:46;;;;;;;3.85;2.92;;;12.30;7.20;;;;;;5046060;28;20058;-59
2023/03/17 10:22:24;;;;;;;4.53;2.50;;;12.50;7.20;;;;;;5049325;28;20039;-59
2023/03/17 10:25:00;;;;;;;4.95;2.70;;;12.70;7.10;;;;;;5018622;28;20082;-59
2023/03/17 10:27:27;;;;;;;7.35;3.47;;;12.70;5.90;;;;;;5049424;28;20381;-59
2023/03/17 10:29:53;;;;;;;6.57;2.97;;;12.50;6.10;;;;;;5033509;28;20028;-59
2023/03/17 10:32:18;;;;;;;5.75;2.88;;;12.50;5.70;;;;;;5048829;28;20094;-59
2023/03/17 10:34:47;;;;;;;8.73;2.90;;;12.40;6.50;;;;;;5032682;28;20108;-58
2023/03/17 10:37:17;;;;;;;7.07;2.95;;;12.30;7.10;;;;;;5047742;28;20394;-60
2023/03/17 10:39:48;;;;;;;5.95;2.75;;;12.40;7.10;;;;;;5032126;28;20013;-59
2023/03/17 10:42:28;;;;;;;7.35;3.08;;;12.30;6.90;;;;;;5049206;28;20036;-59
2023/03/17 10:45:26;;;;;;;7.30;3.22;;;12.40;7.20;;;;;;5033154;28;20075;-58
2023/03/17 10:47:55;;;;;;;6.60;2.50;;;12.40;7.40;;;;;;5046840;28;20033;-59
2023/03/17 10:50:27;;;;;;;6.70;2.65;;;12.40;8.20;;;;;;5036936;28;20055;-58
2023/03/17 10:52:59;;;;;;;4.72;2.67;;;12.50;7.80;;;;;;5009451;28;20022;-59
2023/03/17 10:55:28;;;;;;;4.70;2.47;;;12.60;7.30;;;;;;5046869;28;20025;-58
2023/03/17 10:58:18;;;;;;;3.33;2.53;;;12.50;7.40;;;;;;5028827;28;20025;-58
2023/03/17 11:00:58;;;;;;;6.70;2.47;;;12.30;7.60;;;;;;5018588;28;20048;-58
2023/03/17 11:03:30;;;;;;;6.55;2.22;;;12.30;7.60;;;;;;5048229;28;20017;-58
2023/03/17 11:06:02;;;;;;;4.05;2.40;;;12.40;7.80;;;;;;5020957;28;20053;-58
2023/03/17 11:08:34;;;;;;;4.72;2.50;;;12.40;8.20;;;;;;5009048;28;20025;-59
2023/03/17 11:11:03;;;;;;;4.53;2.80;;;12.50;7.60;;;;;;5030914;28;20045;-58
2023/03/17 11:13:29;;;;;;;5.60;2.22;;;12.50;7.00;;;;;;5048065;28;20036;-59
2023/03/17 11:16:16;;;;;;;8.60;2.55;;;12.70;7.20;;;;;;5026927;28;20226;-58
2023/03/17 11:18:42;;;;;;;6.40;2.45;;;12.70;6.80;;;;;;5008997;28;20038;-59
2023/03/17 11:21:18;;;;;;;5.28;2.25;;;12.70;7.10;;;;;;5029134;28;20030;-58
2023/03/17 11:23:49;;;;;;;4.50;2.50;;;12.80;7.50;;;;;;5008798;28;20033;-59
2023/03/17 11:26:35;;;;;;;5.70;2.50;;;12.90;7.10;;;;;;5028477;28;20037;-59
2023/03/17 11:29:25;;;;;;;4.93;2.73;;;13.00;6.90;;;;;;5008918;28;20204;-59
2023/03/17 11:32:38;;;;;;;5.00;2.30;;;12.90;5.90;;;;;;5033466;28;20048;-59
2023/03/17 11:35:33;;;;;;;6.38;3.22;;;12.90;6.80;;;;;;5025909;28;20030;-60
2023/03/17 11:38:23;;;;;;;5.68;2.72;;;13.10;6.90;;;;;;5000056;28;20041;-59
2023/03/17 11:41:19;;;;;;;4.90;2.40;;;13.00;6.30;;;;;;5008323;28;20104;-59
2023/03/17 11:44:12;;;;;;;5.00;2.50;;;12.90;7.00;;;;;;5008997;28;20037;-59
2023/03/17 11:46:54;;;;;;;4.72;2.50;;;13.00;6.20;;;;;;5044728;28;20021;-59
2023/03/17 11:49:27;;;;;;;6.60;2.45;;;13.00;6.00;;;;;;5048297;28;20393;-59
2023/03/17 11:52:02;;;;;;;4.63;2.70;;;12.90;6.00;;;;;;5019541;28;20041;-59
2023/03/17 11:54:46;;;;;;;6.65;2.58;;;12.90;6.90;;;;;;5048191;28;20104;-59
2023/03/17 11:57:16;;;;;;;4.10;2.53;;;13.00;6.40;;;;;;5024688;28;20037;-59
2023/03/17 11:59:59;;;;;;;5.32;2.80;;;13.00;5.70;;;;;;5028780;28;20037;-59
2023/03/17 12:02:35;;;;;;;8.10;2.58;;;13.10;5.70;;;;;;5032291;28;20139;-59
2023/03/17 12:05:12;;;;;;;5.13;2.15;;;13.10;6.10;;;;;;5017953;28;20033;-59
2023/03/17 12:08:05;;;;;;;4.88;2.20;;;13.10;6.30;;;;;;5049592;28;20035;-59
2023/03/17 12:10:45;;;;;;;4.70;2.40;;;13.20;6.90;;;;;;5031938;28;20033;-58
2023/03/17 12:13:19;;;;;;;4.53;2.60;;;13.40;6.70;;;;;;5030163;28;20044;-59
2023/03/17 12:15:51;;;;;;;5.40;2.22;;;13.30;6.30;;;;;;5010901;28;20486;-59
2023/03/17 12:18:31;;;;;;;4.60;2.22;;;13.30;6.60;;;;;;5027846;28;20030;-59
2023/03/17 12:21:00;;;;;;;3.45;1.63;;;13.50;7.10;;;;;;5011549;28;20026;-59
2023/03/17 12:23:47;;;;;;;4.53;2.22;;;13.60;6.10;;;;;;5029791;28;20034;-59
2023/03/17 12:26:27;;;;;;;7.80;2.20;;;13.60;5.40;;;;;;5011870;28;20617;-58
2023/03/17 12:29:00;;;;;;;3.85;2.17;;;13.60;5.70;;;;;;5051475;28;20273;-59
2023/03/17 12:31:33;;;;;;;6.03;2.42;;;13.60;6.30;;;;;;5025180;28;20053;-59
2023/03/17 12:34:14;;;;;;;4.25;2.33;;;13.60;6.10;;;;;;5050688;28;20064;-59
2023/03/17 12:36:41;;;;;;;3.65;2.45;;;13.50;6.40;;;;;;5019381;28;20374;-59
2023/03/17 12:39:12;;;;;;;4.13;2.38;;;13.40;6.60;;;;;;5051197;28;20531;-58
2023/03/17 12:42:00;;;;;;;3.47;2.35;;;13.40;6.80;;;;;;5018471;28;20028;-59
2023/03/17 12:44:56;;;;;;;3.00;1.90;;;13.40;6.80;;;;;;5051315;28;20044;-59
2023/03/17 12:47:54;;;;;;;4.45;2.00;;;13.60;6.70;;;;;;5030663;28;20029;-59
2023/03/17 12:51:05;;;;;;;4.88;2.50;;;13.60;7.00;;;;;;5011439;28;20025;-59
2023/03/17 12:53:34;;;;;;;6.55;2.15;;;13.70;6.80;;;;;;5031096;28;20150;-59
2023/03/17 12:56:14;;;;;;;6.72;1.90;;;13.90;6.30;;;;;;5050622;28;20087;-58
2023/03/17 12:58:45;;;;;;;2.70;1.67;;;13.80;6.10;;;;;;5050870;28;20035;-59
2023/03/17 13:01:21;;;;;;;4.53;2.05;;;13.90;6.50;;;;;;5010721;28;20505;-58
2023/03/17 13:04:05;;;;;;;5.70;2.05;;;13.90;6.20;;;;;;5050868;28;20029;-59
2023/03/17 13:06:39;;;;;;;6.32;2.60;;;13.90;6.00;;;;;;5010528;28;20036;-59